createdAt,value
2023-02-05T00:03:42.684Z,100491.60
2023-02-05T00:08:44.974Z,100495.57
2023-02-05T00:13:51.951Z,100490.73
2023-02-05T00:18:54.737Z,100492.86
2023-02-05T00:23:56.702Z,100488.47
2023-02-05T00:28:59.196Z,100490.02
2023-02-05T00:34:03.760Z,100489.86
2023-02-05T00:39:09.097Z,100491.55
2023-02-05T00:44:11.118Z,100491.17
2023-02-05T00:49:13.977Z,100495.02
2023-02-05T00:54:16.271Z,100497.81
2023-02-05T00:59:18.291Z,100497.26
2023-02-05T01:04:20.063Z,100495.84
2023-02-05T01:09:23.330Z,100498.75
2023-02-05T01:14:25.368Z,100503.77
2023-02-05T01:19:27.594Z,100511.20
2023-02-05T01:24:30.117Z,100511.56
2023-02-05T01:29:32.551Z,100509.20
2023-02-05T01:34:35.097Z,100507.92
2023-02-05T01:39:37.542Z,100502.45
2023-02-05T01:44:41.096Z,100497.69
2023-02-05T01:49:46.355Z,100500.77
2023-02-05T01:54:53.276Z,100503.19
2023-02-05T01:59:55.714Z,100501.64
2023-02-05T02:05:02.816Z,100504.95
2023-02-05T02:10:06.235Z,100514.72
2023-02-05T02:15:20.325Z,100517.98
2023-02-05T02:20:30.303Z,100513.73
2023-02-05T02:25:48.964Z,100508.82
2023-02-05T02:31:06.989Z,100510.94
2023-02-05T02:36:18.046Z,100521.18
2023-02-05T02:41:28.630Z,100524.33
2023-02-05T02:46:44.441Z,100526.83
2023-02-05T02:51:51.159Z,100521.59
2023-02-05T02:56:55.821Z,100515.34
2023-02-05T03:02:02.554Z,100514.48
2023-02-05T03:07:13.619Z,100507.30
2023-02-05T03:12:16.108Z,100505.42
2023-02-05T03:17:19.854Z,100512.73
2023-02-05T03:22:26.000Z,100512.73
2023-02-05T03:27:28.433Z,100506.23
2023-02-05T03:32:46.515Z,100504.63
2023-02-05T03:38:12.698Z,100505.65
2023-02-05T03:43:21.208Z,100514.27
2023-02-05T03:48:40.109Z,100515.46
2023-02-05T03:54:05.096Z,100516.34
2023-02-05T03:59:09.204Z,100526.64
2023-02-05T04:04:12.705Z,100535.85
2023-02-05T04:09:14.925Z,100537.73
2023-02-05T04:14:17.924Z,100536.68
2023-02-05T04:19:20.976Z,100534.94
2023-02-05T04:24:23.216Z,100533.41
2023-02-05T04:29:25.298Z,100540.52
2023-02-05T04:34:28.184Z,100544.05
2023-02-05T04:39:31.077Z,100550.92
2023-02-05T04:44:33.025Z,100550.65
2023-02-05T04:49:38.349Z,100545.19
2023-02-05T04:54:40.609Z,100551.08
2023-02-05T04:59:42.577Z,100560.73
2023-02-05T05:04:44.491Z,100563.77
2023-02-05T05:09:46.735Z,100571.78
2023-02-05T05:14:48.548Z,100579.20
2023-02-05T05:19:50.476Z,100576.06
2023-02-05T05:24:52.511Z,100582.69
2023-02-05T05:29:54.497Z,100594.27
2023-02-05T05:34:57.316Z,100600.38
2023-02-05T05:40:18.267Z,100605.70
2023-02-05T05:45:20.280Z,100618.15
2023-02-05T05:50:22.538Z,100618.69
2023-02-05T05:55:24.453Z,100625.57
2023-02-05T06:00:26.986Z,100632.06
2023-02-05T06:05:31.548Z,100640.41
2023-02-05T06:10:33.643Z,100655.92
2023-02-05T06:15:35.879Z,100661.23
2023-02-05T06:20:38.071Z,100672.35
2023-02-05T06:25:40.493Z,100684.35
2023-02-05T06:30:43.098Z,100682.77
2023-02-05T06:35:44.921Z,100683.19
2023-02-05T06:40:48.312Z,100689.41
2023-02-05T06:45:50.306Z,100685.91
2023-02-05T06:50:55.262Z,100690.74
2023-02-05T06:56:00.897Z,100698.66
2023-02-05T07:01:03.214Z,100699.24
2023-02-05T07:06:06.394Z,100697.49
2023-02-05T07:11:08.334Z,100700.09
2023-02-05T07:16:10.431Z,100711.23
2023-02-05T07:21:17.222Z,100711.88
2023-02-05T07:26:19.131Z,100717.79
2023-02-05T07:31:21.071Z,100725.17
2023-02-05T07:36:23.222Z,100731.55
2023-02-05T07:41:26.849Z,100733.08
2023-02-05T07:46:28.965Z,100735.63
2023-02-05T07:51:31.534Z,100737.13
2023-02-05T07:56:33.565Z,100738.84
2023-02-05T08:01:35.782Z,100742.88
2023-02-05T08:06:37.593Z,100748.60
2023-02-05T08:11:40.101Z,100753.55
2023-02-05T08:16:42.060Z,100750.08
2023-02-05T08:21:44.406Z,100760.28
2023-02-05T08:26:46.320Z,100761.20
2023-02-05T08:31:48.474Z,100761.73
2023-02-05T08:36:50.916Z,100761.39
2023-02-05T08:41:54.880Z,100770.21
2023-02-05T08:46:57.979Z,100774.17
2023-02-05T08:51:59.909Z,100777.18
2023-02-05T08:57:02.868Z,100778.73
2023-02-05T09:02:05.251Z,100780.28
2023-02-05T09:07:07.170Z,100791.34
2023-02-05T09:12:10.853Z,100790.59
2023-02-05T09:17:14.422Z,100795.05
2023-02-05T09:22:18.442Z,100796.35
2023-02-05T09:27:21.123Z,100804.20
2023-02-05T09:32:23.567Z,100809.25
2023-02-05T09:37:25.852Z,100804.29
2023-02-05T09:42:39.227Z,100809.13
2023-02-05T09:48:22.629Z,100808.01
2023-02-05T09:53:37.206Z,100809.08
2023-02-05T09:58:46.290Z,100801.23
2023-02-05T10:04:00.779Z,100796.61
2023-02-05T10:09:24.969Z,100785.42
2023-02-05T10:14:39.255Z,100782.60
2023-02-05T10:20:07.361Z,100784.74
2023-02-05T10:25:34.784Z,100783.07
2023-02-05T10:30:56.753Z,100784.02
2023-02-05T10:36:02.479Z,100786.87
2023-02-05T10:41:12.990Z,100786.01
2023-02-05T10:46:17.248Z,100784.58
2023-02-05T10:51:30.938Z,100784.38
2023-02-05T10:56:33.151Z,100781.06
2023-02-05T11:01:38.876Z,100778.46
2023-02-05T11:06:51.288Z,100776.05
2023-02-05T11:12:06.983Z,100769.39
2023-02-05T11:17:32.125Z,100767.70
2023-02-05T11:22:37.406Z,100768.52
2023-02-05T11:27:39.499Z,100767.33
2023-02-05T11:32:41.670Z,100765.33
2023-02-05T11:37:45.190Z,100759.55
2023-02-05T11:42:55.008Z,100754.97
2023-02-05T11:48:00.248Z,100761.82
2023-02-05T11:53:12.450Z,100761.63
2023-02-05T11:58:36.996Z,100757.83
2023-02-05T12:03:39.644Z,100755.13
2023-02-05T12:08:48.336Z,100760.87
2023-02-05T12:14:02.196Z,100761.40
2023-02-05T12:19:26.736Z,100759.02
2023-02-05T12:24:51.950Z,100756.70
2023-02-05T12:30:13.435Z,100757.96
2023-02-05T12:35:42.763Z,100755.41
2023-02-05T12:40:53.673Z,100759.88
2023-02-05T12:46:16.145Z,100749.30
2023-02-05T12:51:39.016Z,100751.54
2023-02-05T12:57:01.822Z,100759.30
2023-02-05T13:02:13.277Z,100765.36
2023-02-05T13:07:29.507Z,100762.50
2023-02-05T13:12:38.079Z,100756.38
2023-02-05T13:17:57.746Z,100748.02
2023-02-05T13:23:18.634Z,100749.02
2023-02-05T13:28:41.405Z,100755.55
2023-02-05T13:33:44.473Z,100746.37
2023-02-05T13:39:13.702Z,100744.29
2023-02-05T13:44:44.750Z,100745.85
2023-02-05T13:50:05.650Z,100741.69
2023-02-05T13:55:24.560Z,100738.15
2023-02-05T14:00:28.471Z,100735.66
2023-02-05T14:05:34.912Z,100733.62
2023-02-05T14:10:42.103Z,100732.27
2023-02-05T14:15:44.981Z,100731.73
2023-02-05T14:20:46.853Z,100729.70
2023-02-05T14:26:11.423Z,100733.95
2023-02-05T14:31:47.780Z,100733.01
2023-02-05T14:36:50.926Z,100724.73
2023-02-05T14:41:58.590Z,100726.31
2023-02-05T14:47:29.301Z,100731.36
2023-02-05T14:52:42.313Z,100738.59
2023-02-05T14:58:03.339Z,100740.16
2023-02-05T15:03:20.090Z,100744.32
2023-02-05T15:08:46.214Z,100745.50
2023-02-05T15:14:36.915Z,100741.61
2023-02-05T15:19:44.130Z,100746.45
2023-02-05T15:24:49.375Z,100743.55
2023-02-05T15:29:57.271Z,100739.29
2023-02-05T15:35:12.856Z,100733.13
2023-02-05T15:40:33.060Z,100740.88
2023-02-05T15:45:40.385Z,100741.64
2023-02-05T15:50:56.349Z,100745.18
2023-02-05T15:55:59.966Z,100751.12
2023-02-05T16:01:03.473Z,100754.58
2023-02-05T16:06:07.228Z,100761.06
2023-02-05T16:11:09.090Z,100762.27
2023-02-05T16:16:23.215Z,100767.89
2023-02-05T16:21:36.744Z,100769.60
2023-02-05T16:26:48.667Z,100765.20
2023-02-05T16:31:59.503Z,100778.27
2023-02-05T16:37:05.521Z,100788.43
2023-02-05T16:42:16.286Z,100798.34
2023-02-05T16:47:20.151Z,100807.16
2023-02-05T16:52:35.791Z,100808.61
2023-02-05T16:57:39.538Z,100801.15
2023-02-05T17:02:41.938Z,100802.77
2023-02-05T17:07:53.249Z,100804.62
2023-02-05T17:13:03.441Z,100806.46
2023-02-05T17:18:30.146Z,100801.47
2023-02-05T17:23:32.187Z,100806.17
2023-02-05T17:28:38.205Z,100812.34
2023-02-05T17:33:40.245Z,100806.30
2023-02-05T17:38:42.189Z,100811.71
2023-02-05T17:43:44.293Z,100812.64
2023-02-05T17:48:47.238Z,100820.27
2023-02-05T17:53:50.056Z,100820.43
2023-02-05T17:58:53.444Z,100822.84
2023-02-05T18:03:55.184Z,100834.28
2023-02-05T18:08:57.293Z,100839.06
2023-02-05T18:13:59.140Z,100838.70
2023-02-05T18:19:01.579Z,100845.88
2023-02-05T18:24:04.025Z,100849.73
2023-02-05T18:29:06.630Z,100849.14
2023-02-05T18:34:15.838Z,100853.64
2023-02-05T18:39:17.788Z,100852.12
2023-02-05T18:44:20.001Z,100851.77
2023-02-05T18:49:22.916Z,100850.40
2023-02-05T18:54:25.060Z,100848.90
2023-02-05T18:59:28.862Z,100854.74
2023-02-05T19:04:33.091Z,100849.56
2023-02-05T19:09:36.627Z,100853.69
2023-02-05T19:14:39.452Z,100853.20
2023-02-05T19:19:41.697Z,100848.60
2023-02-05T19:24:44.692Z,100848.35
2023-02-05T19:29:47.885Z,100855.84
2023-02-05T19:34:51.716Z,100851.47
2023-02-05T19:39:54.005Z,100851.55
2023-02-05T19:44:56.531Z,100853.09
2023-02-05T19:49:58.350Z,100857.80
2023-02-05T19:55:02.063Z,100864.10
2023-02-05T20:00:04.651Z,100856.59
2023-02-05T20:05:14.025Z,100856.60
2023-02-05T20:10:16.280Z,100855.90
2023-02-05T20:15:18.495Z,100865.00
2023-02-05T20:20:32.836Z,100865.83
2023-02-05T20:25:35.461Z,100872.81
2023-02-05T20:30:56.150Z,100877.31
2023-02-05T20:36:03.817Z,100873.20
2023-02-05T20:41:17.721Z,100886.76
2023-02-05T20:46:19.877Z,100897.25
2023-02-05T20:51:23.111Z,100896.02
2023-02-05T20:56:27.508Z,100905.67
2023-02-05T21:01:32.168Z,100907.15
2023-02-05T21:06:37.409Z,100909.47
2023-02-05T21:11:40.214Z,100917.48
2023-02-05T21:16:42.758Z,100919.11
2023-02-05T21:21:45.724Z,100925.20
2023-02-05T21:26:49.435Z,100935.45
2023-02-05T21:31:55.522Z,100938.38
2023-02-05T21:37:00.499Z,100945.44
2023-02-05T21:42:02.632Z,100950.80
2023-02-05T21:47:04.981Z,100966.13
2023-02-05T21:52:08.305Z,100959.81
2023-02-05T21:57:10.701Z,100969.16
2023-02-05T22:02:12.677Z,100967.67
2023-02-05T22:07:15.135Z,100970.36
2023-02-05T22:12:18.452Z,100977.17
2023-02-05T22:17:22.409Z,100986.20
2023-02-05T22:22:24.447Z,100982.52
2023-02-05T22:27:27.255Z,100981.75
2023-02-05T22:32:32.194Z,100987.52
2023-02-05T22:37:34.746Z,100993.45
2023-02-05T22:42:36.695Z,100993.98
2023-02-05T22:47:38.691Z,100997.75
2023-02-05T22:52:40.773Z,100997.34
2023-02-05T22:57:43.190Z,101004.83
2023-02-05T23:02:46.432Z,101000.83
2023-02-05T23:07:49.907Z,101003.98
2023-02-05T23:12:52.413Z,101009.48
2023-02-05T23:17:54.474Z,101019.98
2023-02-05T23:22:56.618Z,101008.20
2023-02-05T23:27:58.643Z,101007.83
2023-02-05T23:33:01.230Z,101007.02
2023-02-05T23:38:03.569Z,101005.59
2023-02-05T23:43:06.142Z,100996.16
2023-02-05T23:48:10.989Z,100991.55
2023-02-05T23:53:13.351Z,100989.66
2023-02-05T23:58:23.065Z,100987.86
